Time;durP1;ratioP1;P1;durP2;ratioP2;P2;SDS_P1;SDS_P2;PMS_P1;PMS_P2;Temp;Humidity;BMP_temperature;BMP_pressure;BME280_temperature;BME280_humidity;BME280_pressure;Samples;Min_cycle;Max_cycle;Signal;HPM_P1;HPM_P2
2022/06/02 00:01:30;;;;;;;11.68;8.18;;;;;;;;;;4889102;29;20093;-90
2022/06/02 00:04:19;;;;;;;11.63;8.20;;;;;;;;;;4903811;29;20040;-90
2022/06/02 00:06:55;;;;;;;10.65;8.15;;;;;;;;;;4890126;29;20060;-90
2022/06/02 00:09:25;;;;;;;9.60;8.65;;;;;;;;;;4870240;29;20060;-91
2022/06/02 00:12:03;;;;;;;9.90;8.90;;;;;;;;;;4873477;29;20064;-89
2022/06/02 00:14:39;;;;;;;11.80;9.85;;;;;;;;;;4888588;29;20045;-93
2022/06/02 00:17:18;;;;;;;12.63;10.65;;;;;;;;;;4870938;29;20059;-88
2022/06/02 00:19:50;;;;;;;11.52;10.15;;;;;;;;;;4871541;29;20135;-92
2022/06/02 00:22:33;;;;;;;12.85;10.38;;;;;;;;;;4871600;29;20058;-88
2022/06/02 00:25:00;;;;;;;12.68;10.63;;;;;;;;;;4886810;29;20041;-90
2022/06/02 00:27:31;;;;;;;11.07;10.00;;;;;;;;;;4873156;29;20052;-90
2022/06/02 00:29:57;;;;;;;13.02;10.75;;;;;;;;;;4872157;29;20067;-88
2022/06/02 00:32:43;;;;;;;12.40;9.75;;;;;;;;;;4887289;29;20055;-89
2022/06/02 00:35:28;;;;;;;11.82;10.18;;;;;;;;;;4853543;29;20068;-89
2022/06/02 00:38:03;;;;;;;15.05;10.63;;;;;;;;;;4872662;29;20053;-88
2022/06/02 00:40:30;;;;;;;12.93;10.68;;;;;;;;;;4868084;29;20056;-88
2022/06/02 00:43:25;;;;;;;13.80;9.82;;;;;;;;;;4868168;29;20057;-88
2022/06/02 00:45:59;;;;;;;16.92;10.88;;;;;;;;;;4878339;29;20060;-90
2022/06/02 00:48:37;;;;;;;11.52;10.18;;;;;;;;;;4897135;29;20112;-89
2022/06/02 00:51:05;;;;;;;14.20;9.25;;;;;;;;;;4873580;29;20059;-88
2022/06/02 00:57:30;;;;;;;13.23;9.45;;;;;;;;;;4873228;29;20188;-91
2022/06/02 00:59:57;;;;;;;10.80;9.18;;;;;;;;;;4886377;29;20064;-92
2022/06/02 01:02:23;;;;;;;12.02;9.57;;;;;;;;;;4866294;29;20049;-91
2022/06/02 01:04:49;;;;;;;9.70;8.80;;;;;;;;;;4885867;29;20036;-90
2022/06/02 01:07:33;;;;;;;10.55;9.18;;;;;;;;;;4873635;29;20497;-86
2022/06/02 01:09:59;;;;;;;12.68;9.27;;;;;;;;;;4903669;29;20044;-89
2022/06/02 01:12:28;;;;;;;10.25;8.60;;;;;;;;;;4908602;29;20040;-89
2022/06/02 01:15:07;;;;;;;11.35;8.23;;;;;;;;;;4903363;29;20059;-87
2022/06/02 01:17:36;;;;;;;10.63;8.60;;;;;;;;;;4888469;29;20508;-88
2022/06/02 01:20:20;;;;;;;13.43;9.63;;;;;;;;;;4907832;29;20056;-85
2022/06/02 01:22:46;;;;;;;;;;;;;;;;;;4888692;29;20497;-90
2022/06/02 01:25:31;;;;;;;9.40;8.50;;;;;;;;;;4887213;29;19935;-91
2022/06/02 01:28:16;;;;;;;9.65;8.70;;;;;;;;;;4903669;29;20592;-88
2022/06/02 01:31:00;;;;;;;9.73;8.73;;;;;;;;;;4908523;29;20087;-89
2022/06/02 01:33:33;;;;;;;9.52;8.52;;;;;;;;;;4907956;29;20081;-90
2022/06/02 01:36:04;;;;;;;9.82;8.82;;;;;;;;;;4903681;29;20048;-91
2022/06/02 01:38:38;;;;;;;11.23;8.90;;;;;;;;;;4904477;29;20040;-89
2022/06/02 01:41:22;;;;;;;10.02;8.82;;;;;;;;;;4904064;29;20041;-85
2022/06/02 01:43:49;;;;;;;;;;;;;;;;;;4889893;29;20052;-81
2022/06/02 01:46:31;;;;;;;10.05;8.23;;;;;;;;;;4901967;29;19966;-87
2022/06/02 01:49:23;;;;;;;12.68;8.32;;;;;;;;;;4903181;29;20044;-88
2022/06/02 01:51:55;;;;;;;12.20;8.48;;;;;;;;;;4880488;29;20110;-87
2022/06/02 01:54:41;;;;;;;8.98;8.10;;;;;;;;;;4910409;29;20366;-88
2022/06/02 01:57:22;;;;;;;10.55;8.27;;;;;;;;;;4912449;29;20047;-84
2022/06/02 01:59:55;;;;;;;9.55;8.57;;;;;;;;;;4906681;29;20040;-89
2022/06/02 02:02:39;;;;;;;11.38;8.52;;;9.20;99.90;;;;;;4903369;29;20086;-84
2022/06/02 02:05:05;;;;;;;;;;;;;;;;;;4891323;29;20079;-87
2022/06/02 02:07:37;;;;;;;9.77;8.82;;;;;;;;;;4905865;29;20615;-91
2022/06/02 02:10:15;;;;;;;11.10;8.85;;;;;;;;;;4898474;29;20052;-86
2022/06/02 02:12:47;;;;;;;9.02;8.00;;;;;;;;;;4910722;29;20060;-90
2022/06/02 02:15:28;;;;;;;10.07;8.55;;;;;;;;;;4890931;29;20044;-90
2022/06/02 02:18:18;;;;;;;12.10;7.97;;;;;;;;;;4908806;29;20569;-90
2022/06/02 02:21:00;;;;;;;38.53;8.27;;;;;;;;;;4878441;29;20056;-91
2022/06/02 02:23:39;;;;;;;9.77;8.68;;;;;;;;;;4904848;29;20044;-86
2022/06/02 02:26:14;;;;;;;10.18;8.43;;;;;;;;;;4907772;29;20103;-90
2022/06/02 02:28:52;;;;;;;8.88;7.97;;;;;;;;;;4910509;29;20044;-94
2022/06/02 02:31:54;;;;;;;10.50;9.50;;;;;;;;;;4911597;29;20079;-87
2022/06/02 02:34:29;;;;;;;9.77;8.77;;;;;;;;;;4889544;29;20061;-89
2022/06/02 02:36:59;;;;;;;14.70;9.57;;;;;;;;;;4887829;29;20063;-88
2022/06/02 02:39:31;;;;;;;10.80;9.80;;;;;;;;;;4914242;29;20608;-90
2022/06/02 02:42:03;;;;;;;13.68;9.60;;;;;;;;;;4908779;29;20135;-92
2022/06/02 02:44:49;;;;;;;13.95;10.00;;;;;;;;;;4907592;29;20464;-88
2022/06/02 02:47:18;;;;;;;14.85;9.60;;;;;;;;;;4888715;29;20088;-90
2022/06/02 02:49:55;;;;;;;11.30;9.98;;;;;;;;;;4906795;29;20056;-91
2022/06/02 02:52:27;;;;;;;13.85;10.98;;;;;;;;;;4910299;29;20052;-88
2022/06/02 02:55:03;;;;;;;11.60;10.40;;;;;;;;;;4891281;29;20071;-91
2022/06/02 02:57:48;;;;;;;12.68;11.10;;;;;;;;;;4892832;29;20040;-88
2022/06/02 03:00:20;;;;;;;14.07;10.65;;;;;;;;;;4886010;29;20449;-85
2022/06/02 03:03:05;;;;;;;12.38;11.07;;;;;;;;;;4884008;29;20268;-86
2022/06/02 03:05:44;;;;;;;15.38;11.52;;;;;;;;;;4887833;29;20056;-85
2022/06/02 03:08:15;;;;;;;15.20;12.32;;;;;;;;;;4897827;29;20048;-86
2022/06/02 03:10:43;;;;;;;12.57;11.27;;;;;;;;;;4903092;29;20170;-89
2022/06/02 03:13:18;;;;;;;15.35;12.73;;;;;;;;;;4924234;29;20072;-88
2022/06/02 03:16:05;;;;;;;14.40;12.60;;;;;;;;;;4921750;29;20032;-84
2022/06/02 03:18:45;;;;;;;13.10;11.77;;;;;;;;;;4923197;29;20048;-85
2022/06/02 03:21:20;;;;;;;14.10;11.88;;;;;;;;;;4922546;29;20112;-83
2022/06/02 03:24:04;;;;;;;13.20;11.38;;;;;;;;;;4909794;29;20133;-80
2022/06/02 03:26:30;;;;;;;;;;;;;;;;;;4928572;29;20032;-91
2022/06/02 03:28:59;;;;;;;12.73;11.45;;;;;;;;;;4927339;29;19927;-82
2022/06/02 03:31:49;;;;;;;13.23;11.85;;;;;;;;;;4912558;29;20051;-91
2022/06/02 03:34:26;;;;;;;14.40;12.57;;;;;;;;;;4908990;29;20067;-92
2022/06/02 03:37:11;;;;;;;17.20;13.13;;;;;;;;;;4905571;29;20104;-92
2022/06/02 03:39:40;;;;;;;15.45;12.98;;;;;;;;;;4909432;29;20040;-86
2022/06/02 03:42:06;;;;;;;16.73;12.73;;;;;;;;;;4890589;29;20453;-91
2022/06/02 03:44:48;;;;;;;14.48;12.82;;;;;;;;;;4908750;29;20049;-91
2022/06/02 03:47:20;;;;;;;13.00;11.30;;;;;;;;;;4907229;29;20048;-82
2022/06/02 03:49:49;;;;;;;12.20;10.95;;;;;;;;;;4905431;29;20104;-81
2022/06/02 03:52:34;;;;;;;11.40;10.30;;;;;;;;;;4909147;29;20044;-93
2022/06/02 03:55:08;;;;;;;11.40;10.15;;;;;;;;;;4891241;29;20055;-90
2022/06/02 03:57:38;;;;;;;11.77;10.55;;;;;;;;;;4893457;29;20044;-92
2022/06/02 04:00:10;;;;;;;11.55;8.98;;;;;;;;;;4909072;29;20044;-94
2022/06/02 04:03:05;;;;;;;11.13;9.13;;;;;;;;;;4911395;29;20060;-88
2022/06/02 04:05:41;;;;;;;12.18;10.23;;;;;;;;;;4880659;29;20055;-91
2022/06/02 04:08:12;;;;;;;10.50;8.93;;;;;;;;;;4888837;29;20064;-85
2022/06/02 04:10:42;;;;;;;10.07;8.23;;;;;;;;;;4892877;29;20056;-87
2022/06/02 04:16:05;;;;;;;10.55;8.20;;;;;;;;;;4907927;29;20476;-93
2022/06/02 04:18:37;;;;;;;9.25;7.72;;;;;;;;;;4914599;29;20044;-94
2022/06/02 04:21:22;;;;;;;10.85;8.48;;;;;;;;;;4921721;29;20047;-88
2022/06/02 04:23:48;;;;;;;9.82;7.93;;;;;;;;;;4910843;29;20092;-90
2022/06/02 04:26:28;;;;;;;9.57;7.78;;;;;;;;;;4910070;29;20051;-91
2022/06/02 04:28:57;;;;;;;9.10;8.20;;;;;;;;;;4911931;29;20500;-83
2022/06/02 04:31:26;;;;;;;10.35;8.30;;;;;;;;;;4908994;29;20044;-88
2022/06/02 04:33:59;;;;;;;10.35;7.07;;;;;;;;;;4887871;29;20044;-87
2022/06/02 04:36:33;;;;;;;9.10;7.88;;;;;;;;;;4891534;29;20059;-90
2022/06/02 04:38:59;;;;;;;;;;;;;;;;;;4893603;29;20138;-84
2022/06/02 04:41:32;;;;;;;9.18;7.35;;;;;;;;;;4899408;29;19982;-90
2022/06/02 04:43:58;;;;;;;9.93;7.55;;;;;;;;;;4917427;29;20048;-94
2022/06/02 04:46:50;;;;;;;7.22;6.53;;;;;;;;;;4914547;29;20408;-88
2022/06/02 04:49:25;;;;;;;8.15;7.35;;;;;;;;;;4916052;29;20052;-83
2022/06/02 04:52:01;;;;;;;8.38;7.20;;;;;;;;;;4915537;29;20044;-85
2022/06/02 04:54:53;;;;;;;9.65;7.00;;;;;;;;;;4912207;29;20040;-88
2022/06/02 04:57:34;;;;;;;6.93;6.05;;;;;;;;;;4897256;29;20040;-94
2022/06/02 05:00:07;;;;;;;13.25;6.53;;;;;;;;;;4913768;29;20055;-91
2022/06/02 05:02:33;;;;;;;9.05;6.80;;;;;;;;;;4916675;29;20048;-95
2022/06/02 05:04:59;;;;;;;9.38;6.80;;;;;;;;;;4913395;29;20078;-89
2022/06/02 05:07:29;;;;;;;7.95;6.70;;;;;;;;;;4912435;29;20059;-92
2022/06/02 05:10:00;;;;;;;10.95;6.72;;;;;;;;;;4918940;29;20052;-90
2022/06/02 05:12:36;;;;;;;9.48;6.25;;;;;;;;;;4892134;29;20123;-87
2022/06/02 05:15:13;;;;;;;7.70;6.15;;;;;;;;;;4896028;29;20063;-93
2022/06/02 05:17:58;;;;;;;9.93;6.00;;;;;;;;;;4921496;29;20065;-88
2022/06/02 05:20:33;;;;;;;6.97;6.35;;;;;;;;;;4916990;29;20055;-91
2022/06/02 05:23:22;;;;;;;7.38;6.68;;;;;;;;;;4909337;29;20029;-94
2022/06/02 05:25:54;;;;;;;8.50;6.57;;;;;;;;;;4901206;29;20044;-92
2022/06/02 05:28:37;;;;;;;7.97;6.22;;;;;;;;;;4915235;29;20079;-95
2022/06/02 05:31:18;;;;;;;9.20;6.63;;;;;;;;;;4914340;29;20039;-93
2022/06/02 05:33:53;;;;;;;6.82;5.97;;;;;;;;;;4917382;29;20048;-92
2022/06/02 05:36:38;;;;;;;7.85;5.80;;;;;;;;;;4913385;29;20043;-87
2022/06/02 05:39:05;;;;;;;7.00;5.68;;;;;;;;;;4910444;29;20099;-92
2022/06/02 05:41:51;;;;;;;7.93;5.82;;;;;;;;;;4911230;29;20144;-93
2022/06/02 05:44:25;;;;;;;6.97;5.55;;;;;;;;;;4910984;29;20048;-89
2022/06/02 05:46:51;;;;;;;5.65;5.00;;;;;;;;;;4911095;29;20040;-89
2022/06/02 05:49:21;;;;;;;5.45;4.95;;;;;;;;;;4894243;29;20067;-94
2022/06/02 05:52:04;;;;;;;8.27;5.00;;;;;;;;;;4911773;29;20120;-94
2022/06/02 05:54:30;;;;;;;6.13;4.00;;;;;;;;;;4910860;29;20036;-92
2022/06/02 05:57:00;;;;;;;5.68;4.30;;;;;;;;;;4914580;29;20040;-91
2022/06/02 05:59:41;;;;;;;5.63;4.45;;;;;;;;;;4912786;29;20055;-91
2022/06/02 06:02:07;;;;;;;8.40;4.18;;;;;;;;;;4909892;29;20047;-90
2022/06/02 06:04:39;;;;;;;8.15;3.97;;;;;;;;;;4910902;29;20453;-92
2022/06/02 06:07:14;;;;;;;9.02;3.67;;;;;;;;;;4912399;29;20043;-89
2022/06/02 06:09:43;;;;;;;5.65;4.07;;;;;;;;;;4918410;29;20051;-87
2022/06/02 06:12:15;;;;;;;11.40;4.00;;;;;;;;;;4924873;29;20131;-92
2022/06/02 06:14:51;;;;;;;4.15;3.72;;;;;;;;;;4904530;29;20048;-86
2022/06/02 06:17:17;;;;;;;7.47;3.65;;;;;;;;;;4905755;29;20052;-89
2022/06/02 06:19:53;;;;;;;3.83;3.08;;;;;;;;;;4912199;29;20111;-92
2022/06/02 06:22:29;;;;;;;7.57;3.65;;;;;;;;;;4918089;29;20135;-90
2022/06/02 06:25:14;;;;;;;14.57;8.32;;;;;;;;;;4912333;29;20087;-90
2022/06/02 06:28:03;;;;;;;7.15;3.40;;;;;;;;;;4909824;29;20399;-87
2022/06/02 06:30:44;;;;;;;3.72;2.90;;;;;;;;;;4905793;29;20757;-87
2022/06/02 06:33:29;;;;;;;5.60;3.08;;;;;;;;;;4908159;29;20652;-89
2022/06/02 06:36:13;;;;;;;6.82;3.15;;;;;;;;;;4907511;29;20056;-85
2022/06/02 06:38:57;;;;;;;8.82;3.47;;;;;;;;;;4907878;29;20044;-89
2022/06/02 06:41:27;;;;;;;4.10;2.88;;;;;;;;;;4910375;29;20231;-90
2022/06/02 06:44:09;;;;;;;5.32;3.10;;;;;;;;;;4894364;29;20052;-84
2022/06/02 06:46:41;;;;;;;3.08;2.55;;;;;;;;;;4910362;29;20036;-87
2022/06/02 06:49:27;;;;;;;10.15;2.35;;;;;;;;;;4911127;29;20059;-87
2022/06/02 06:52:12;;;;;;;5.60;2.20;;;;;;;;;;4887634;29;20135;-85
2022/06/02 06:54:44;;;;;;;7.22;2.25;;;;;;;;;;4910238;29;20036;-89
2022/06/02 06:57:21;;;;;;;4.90;1.50;;;;;;;;;;4913369;29;20137;-89
2022/06/02 06:59:53;;;;;;;7.22;1.95;;;;;;;;;;4892398;29;20070;-89
2022/06/02 07:02:39;;;;;;;5.38;1.90;;;;;;;;;;4893812;29;20044;-87
2022/06/02 07:05:23;;;;;;;5.45;1.63;;;;;;;;;;4909059;29;20092;-88
2022/06/02 07:07:49;;;;;;;;;;;;;;;;;;4911080;29;20139;-81
2022/06/02 07:10:21;;;;;;;2.85;1.50;;;;;;;;;;4914194;29;20045;-86
2022/06/02 07:12:58;;;;;;;3.55;1.60;;;;;;;;;;4905181;29;20040;-88
2022/06/02 07:15:26;;;;;;;6.70;2.00;;;;;;;;;;4907682;29;20036;-80
2022/06/02 07:18:01;;;;;;;5.97;1.77;;;;;;;;;;4909082;29;20040;-86
2022/06/02 07:20:42;;;;;;;5.07;1.50;;;;;;;;;;4908958;29;20056;-87
2022/06/02 07:23:12;;;;;;;3.88;1.38;;;;;;;;;;4911353;29;20040;-86
2022/06/02 07:25:43;;;;;;;4.43;1.35;;;;;;;;;;4907393;29;20786;-84
2022/06/02 07:28:48;;;;;;;2.40;1.35;;;;;;;;;;4890911;29;20123;-86
2022/06/02 07:31:14;;;;;;;10.48;1.60;;;;;;;;;;4869605;29;20377;-85
2022/06/02 07:33:50;;;;;;;3.85;1.70;;;;;;;;;;4906851;29;20052;-86
2022/06/02 07:36:16;;;;;;;7.22;1.60;;;;;;;;;;4908624;29;20142;-87
2022/06/02 07:38:46;;;;;;;2.85;1.45;;;;;;;;;;4908001;29;20249;-82
2022/06/02 07:41:17;;;;;;;2.97;1.20;;;;;;;;;;4907337;29;20455;-82
2022/06/02 07:44:00;;;;;;;3.17;2.05;;;;;;;;;;4909578;29;20048;-81
2022/06/02 07:46:27;;;;;;;2.55;1.48;;;;;;;;;;4905459;29;20100;-80
2022/06/02 07:49:10;;;;;;;3.70;1.60;;;;;;;;;;4910179;29;20040;-89
2022/06/02 07:51:36;;;;;;;3.97;1.75;;;;;;;;;;4895750;29;20147;-83
2022/06/02 07:54:02;;;;;;;3.55;1.65;;;;;;;;;;4894354;29;20044;-79
2022/06/02 07:56:47;;;;;;;7.18;2.50;;;;;;;;;;4912912;29;20043;-81
2022/06/02 07:59:31;;;;;;;3.38;1.35;;;;;;;;;;4915205;29;20097;-86
2022/06/02 08:02:06;;;;;;;1.85;1.23;;;;;;;;;;4916481;29;20047;-86
2022/06/02 08:05:05;;;;;;;2.88;1.70;;;;;;;;;;4895843;29;20065;-90
2022/06/02 08:07:36;;;;;;;3.65;1.48;;;;;;;;;;4916390;29;20075;-91
2022/06/02 08:10:20;;;;;;;3.60;1.40;;;;;;;;;;4916737;29;20040;-87
2022/06/02 08:12:56;;;;;;;4.00;1.70;;;;;;;;;;4914632;29;20039;-87
2022/06/02 08:15:28;;;;;;;3.58;1.48;;;;;;;;;;4897305;29;20063;-88
2022/06/02 08:17:58;;;;;;;2.83;1.38;;;;;;;;;;4911625;29;20044;-87
2022/06/02 08:20:28;;;;;;;3.90;1.60;;;;;;;;;;4896899;29;20044;-89
2022/06/02 08:23:08;;;;;;;4.10;1.60;;;;;;;;;;4914638;29;20043;-89
2022/06/02 08:25:42;;;;;;;3.92;1.60;;;;;;;;;;4896728;29;20050;-80
2022/06/02 08:28:23;;;;;;;8.30;1.42;;;;;;;;;;4913653;29;20059;-89
2022/06/02 08:30:55;;;;;;;3.00;1.40;;;;;;;;;;4915631;29;20048;-83
2022/06/02 08:33:24;;;;;;;4.32;1.17;;;;;;;;;;4897781;29;20047;-88
2022/06/02 08:35:59;;;;;;;3.53;1.20;;;;;;;;;;4889213;29;20064;-92
2022/06/02 08:38:33;;;;;;;4.00;1.30;;;;;;;;;;4896366;29;20044;-89
2022/06/02 08:41:30;;;;;;;6.10;1.50;;;;;;;;;;4914313;29;20095;-91
2022/06/02 08:44:15;;;;;;;4.40;1.30;;;;;;;;;;4911767;29;20617;-91
2022/06/02 08:47:00;;;;;;;12.73;1.55;;;;;;;;;;4914822;29;20096;-82
2022/06/02 08:49:53;;;;;;;3.50;1.13;;;;;;;;;;4907886;29;20052;-82
2022/06/02 08:52:31;;;;;;;7.72;1.40;;;;;;;;;;4890699;29;20056;-83
2022/06/02 08:55:03;;;;;;;6.45;1.27;;;;;;;;;;4924985;29;20051;-83
2022/06/02 08:57:48;;;;;;;4.78;1.27;;;;;;;;;;4911395;29;20497;-80
2022/06/02 09:00:19;;;;;;;4.78;1.30;;;;;;;;;;4910794;29;20074;-81
2022/06/02 09:02:57;;;;;;;3.88;1.40;;;;;;;;;;4893138;29;20051;-82
2022/06/02 09:05:27;;;;;;;3.60;1.52;;;;;;;;;;4892551;29;20044;-82
2022/06/02 09:08:19;;;;;;;4.00;1.10;;;;;;;;;;4911358;29;20063;-82
2022/06/02 09:10:52;;;;;;;4.40;1.45;;;;;;;;;;4883415;29;20110;-81
2022/06/02 09:13:38;;;;;;;5.05;1.45;;;;;;;;;;4912191;29;20052;-81
2022/06/02 09:16:13;;;;;;;6.82;2.13;;;;;;;;;;4891401;29;20551;-78
2022/06/02 09:18:58;;;;;;;2.92;1.40;;;;;;;;;;4910089;29;20147;-83
2022/06/02 09:21:28;;;;;;;6.68;2.25;;;;;;;;;;4895413;29;20475;-91
2022/06/02 09:24:27;;;;;;;10.75;1.95;;;;;;;;;;4911982;29;20032;-87
2022/06/02 09:27:12;;;;;;;3.78;1.17;;;;;;;;;;4864726;29;20055;-90
2022/06/02 09:29:50;;;;;;;2.75;1.17;;;;;;;;;;4894185;29;20081;-91
2022/06/02 09:32:39;;;;;;;4.68;1.20;;;;;;;;;;4920059;29;20052;-90
2022/06/02 09:35:06;;;;;;;3.40;1.30;;;;;;;;;;4888852;29;20044;-91
2022/06/02 09:37:35;;;;;;;7.55;1.70;;;;;;;;;;4918232;29;20041;-92
2022/06/02 09:40:13;;;;;;;5.13;1.35;;;;;;;;;;4911589;29;20075;-86
2022/06/02 09:42:45;;;;;;;4.25;1.50;;;;;;;;;;4910170;29;20044;-91
2022/06/02 09:45:30;;;;;;;5.78;1.50;;;;;;;;;;4910889;29;20500;-88
2022/06/02 09:47:56;;;;;;;8.10;1.58;;;;;;;;;;4909245;29;20195;-87
2022/06/02 09:50:25;;;;;;;3.78;1.38;;;;;;;;;;4893106;29;20051;-91
2022/06/02 09:52:58;;;;;;;7.45;1.23;;;;;;;;;;4908656;29;20040;-91
2022/06/02 09:55:36;;;;;;;5.70;1.60;;;;;;;;;;4909813;29;20066;-84
2022/06/02 09:58:02;;;;;;;7.10;1.40;;;;;;;;;;4908912;29;20051;-84
2022/06/02 10:00:44;;;;;;;5.15;1.00;;;;;;;;;;4891273;29;20048;-86
2022/06/02 10:03:16;;;;;;;4.05;1.10;;;;;;;;;;4911177;29;20524;-88
2022/06/02 10:05:45;;;;;;;2.05;1.00;;;;;;;;;;4907484;29;20127;-80
2022/06/02 10:08:17;;;;;;;3.15;1.10;;;;;;;;;;4905074;29;20512;-87
2022/06/02 10:11:02;;;;;;;3.38;1.15;;;;;;;;;;4910736;29;20071;-81
2022/06/02 10:13:37;;;;;;;6.72;1.40;;;;;;;;;;4908929;29;20127;-84
2022/06/02 10:16:15;;;;;;;4.65;1.02;;;;;;;;;;4890182;29;20047;-86
2022/06/02 10:18:50;;;;;;;6.50;1.30;;;;;;;;;;4907885;29;20035;-84
2022/06/02 10:21:30;;;;;;;5.43;1.17;;;;;;;;;;4909485;29;20487;-84
2022/06/02 10:24:23;;;;;;;4.07;1.20;;;;;;;;;;4910048;29;20059;-87
2022/06/02 10:27:13;;;;;;;5.15;1.45;;;;;;;;;;4911516;29;20053;-86
2022/06/02 10:29:59;;;;;;;2.53;1.20;;;;;;;;;;4913544;29;20076;-82
2022/06/02 10:32:43;;;;;;;4.88;1.38;;;;;;;;;;4908661;29;20395;-89
2022/06/02 10:35:23;;;;;;;5.18;1.60;;;;;;;;;;4904718;29;20040;-82
2022/06/02 10:37:49;;;;;;;5.25;1.60;;;;;;;;;;4926184;29;20074;-83
2022/06/02 10:40:52;;;;;;;4.82;1.58;;;17.80;99.90;;;;;;4915109;29;20107;-89
2022/06/02 10:43:19;;;;;;;4.68;1.27;;;;;;;;;;4920930;29;20150;-92
2022/06/02 10:45:58;;;;;;;3.22;1.23;;;;;;;;;;4913546;29;20544;-89
2022/06/02 10:49:15;;;;;;;4.97;1.20;;;17.70;99.90;;;;;;4911843;29;20060;-87
2022/06/02 10:51:51;;;;;;;8.27;1.45;;;;;;;;;;4912976;29;20044;-92
2022/06/02 10:54:54;;;;;;;2.78;1.38;;;17.80;99.90;;;;;;4895391;29;20087;-88
2022/06/02 10:57:26;;;;;;;2.60;1.50;;;;;;;;;;4914271;29;20050;-92
2022/06/02 11:00:03;;;;;;;3.17;1.80;;;;;;;;;;4895800;29;20074;-92
2022/06/02 11:02:35;;;;;;;6.38;1.38;;;;;;;;;;4915523;29;20496;-94
2022/06/02 11:05:13;;;;;;;5.95;1.55;;;;;;;;;;4911969;29;20076;-93
2022/06/02 11:07:58;;;;;;;6.95;1.27;;;;;;;;;;4912005;29;20461;-90
2022/06/02 11:10:42;;;;;;;6.03;1.50;;;;;;;;;;4911372;29;20048;-93
2022/06/02 11:13:08;;;;;;;;;;;;;;;;;;4909889;29;20442;-88
2022/06/02 11:15:49;;;;;;;3.65;1.25;;;;;;;;;;4913657;29;19931;-84
2022/06/02 11:18:26;;;;;;;4.43;1.55;;;;;;;;;;4910372;29;20048;-94
2022/06/02 11:20:52;;;;;;;5.05;1.30;;;;;;;;;;4913195;29;20045;-81
2022/06/02 11:23:29;;;;;;;2.53;1.63;;;;;;;;;;4917085;29;20058;-90
2022/06/02 11:26:14;;;;;;;4.95;1.50;;;;;;;;;;4917032;29;20056;-91
2022/06/02 11:28:59;;;;;;;7.53;1.40;;;;;;;;;;4927457;29;20060;-88
2022/06/02 11:31:34;;;;;;;4.30;1.48;;;;;;;;;;4928023;29;20032;-92
2022/06/02 11:34:13;;;;;;;2.58;1.08;;;;;;;;;;4928219;29;20040;-80
2022/06/02 11:36:54;;;;;;;5.20;1.63;;;;;;;;;;4927165;29;20044;-89
2022/06/02 11:39:29;;;;;;;2.88;1.55;;;;;;;;;;4908577;29;20076;-90
2022/06/02 11:42:00;;;;;;;3.90;1.30;;;;;;;;;;4912015;29;20044;-86
2022/06/02 11:44:46;;;;;;;5.07;1.40;;;;;;;;;;4925728;29;20080;-81
2022/06/02 11:47:21;;;;;;;4.05;1.60;;;;;;;;;;4904144;29;20503;-89
2022/06/02 11:49:50;;;;;;;4.18;1.40;;;;;;;;;;4899319;29;20040;-88
2022/06/02 11:52:43;;;;;;;2.28;1.10;;;;;;;;;;4915264;29;20113;-92
2022/06/02 11:55:16;;;;;;;7.32;1.70;;;;;;;;;;4905119;29;20486;-82
2022/06/02 11:58:09;;;;;;;6.63;1.27;;;;;;;;;;4904829;29;20093;-88
2022/06/02 12:00:53;;;;;;;6.38;1.40;;;;;;;;;;4913206;29;20083;-91
2022/06/02 12:03:38;;;;;;;6.10;2.15;;;;;;;;;;4895622;29;20055;-90
2022/06/02 12:06:04;;;;;;;7.13;1.40;;;;;;;;;;4912110;29;20081;-93
2022/06/02 12:08:49;;;;;;;2.40;1.30;;;;;;;;;;4916978;29;20528;-88
2022/06/02 12:11:24;;;;;;;3.55;1.38;;;;;;;;;;4912933;29;20147;-88
2022/06/02 12:14:06;;;;;;;8.45;1.35;;;;;;;;;;4916255;29;20044;-88
2022/06/02 12:16:39;;;;;;;12.68;2.17;;;;;;;;;;4913563;29;20056;-85
2022/06/02 12:19:14;;;;;;;2.55;1.00;;;;;;;;;;4914626;29;20044;-81
2022/06/02 12:21:59;;;;;;;5.22;1.48;;;;;;;;;;4915340;29;20058;-94
2022/06/02 12:24:26;;;;;;;4.25;1.52;;;;;;;;;;4898064;29;20040;-95
2022/06/02 12:27:11;;;;;;;13.40;1.67;;;;;;;;;;4913774;29;20055;-86
2022/06/02 12:29:55;;;;;;;2.50;1.30;;;;;;;;;;4911971;29;20055;-82
2022/06/02 12:32:24;;;;;;;3.15;1.40;;;;;;;;;;4911861;29;20381;-92
2022/06/02 12:34:51;;;;;;;5.13;1.30;;;;;;;;;;4910494;29;20052;-94
2022/06/02 12:37:35;;;;;;;3.83;1.33;;;;;;;;;;4913232;29;20102;-88
2022/06/02 12:40:11;;;;;;;4.30;1.38;;;;;;;;;;4901435;29;20481;-83
2022/06/02 12:42:52;;;;;;;3.08;1.42;;;;;;;;;;4917707;29;20127;-93
2022/06/02 12:45:23;;;;;;;2.95;1.10;;;;;;;;;;4917348;29;20056;-92
2022/06/02 12:48:08;;;;;;;2.75;0.93;;;;;;;;;;4915575;29;20040;-90
2022/06/02 12:50:54;;;;;;;3.97;1.20;;;;;;;;;;4898068;29;20048;-88
2022/06/02 12:53:23;;;;;;;3.53;1.10;;;;;;;;;;4917761;29;20054;-84
2022/06/02 12:56:09;;;;;;;2.63;0.82;;;;;;;;;;4920714;29;20048;-84
2022/06/02 12:58:41;;;;;;;1.48;1.00;;;;;;;;;;4917027;29;20055;-88
2022/06/02 13:01:13;;;;;;;1.15;0.80;;;;;;;;;;4915557;29;20083;-93
2022/06/02 13:03:58;;;;;;;2.40;1.02;;;;;;;;;;4898231;29;20044;-85
2022/06/02 13:06:44;;;;;;;3.42;1.33;;;;;;;;;;4914112;29;20048;-93
2022/06/02 13:09:22;;;;;;;4.18;1.48;;;;;;;;;;4912937;29;20611;-86
2022/06/02 13:12:09;;;;;;;3.30;0.98;;;;;;;;;;4927543;29;20165;-92
2022/06/02 13:14:59;;;;;;;2.70;1.15;;;20.20;99.90;;;;;;4905741;29;20703;-83
2022/06/02 13:17:29;;;;;;;3.28;1.42;;;;;;;;;;4906725;29;20048;-87
2022/06/02 13:20:04;;;;;;;3.47;1.48;;;;;;;;;;4901316;29;20048;-86
2022/06/02 13:22:49;;;;;;;2.25;1.25;;;;;;;;;;4905971;29;20730;-90
2022/06/02 13:25:32;;;;;;;3.13;1.10;;;;;;;;;;4921649;29;20053;-90
2022/06/02 13:27:58;;;;;;;3.10;1.45;;;;;;;;;;4919460;29;20072;-92
2022/06/02 13:30:30;;;;;;;3.67;1.15;;;;;;;;;;4919735;29;20063;-85
2022/06/02 13:33:02;;;;;;;3.17;1.08;;;;;;;;;;4929765;29;20500;-90
2022/06/02 13:35:59;;;;;;;4.28;1.20;;;22.20;99.90;;;;;;4900826;29;20091;-93
2022/06/02 13:38:44;;;;;;;1.63;0.82;;;;;;;;;;4921956;29;20048;-89
2022/06/02 13:41:25;;;;;;;1.83;1.23;;;;;;;;;;4922120;29;20075;-92
2022/06/02 13:43:51;;;;;;;3.25;1.02;;;;;;;;;;4905679;29;20063;-83
2022/06/02 13:46:45;;;;;;;3.20;1.15;;;;;;;;;;4917778;29;20044;-91
2022/06/02 13:49:30;;;;;;;2.67;1.00;;;;;;;;;;4906794;29;20040;-93
2022/06/02 13:52:02;;;;;;;3.78;1.17;;;;;;;;;;4912717;29;20052;-85
2022/06/02 13:57:39;;;;;;;3.13;1.05;;;;;;;;;;4909690;29;20040;-89
2022/06/02 14:00:55;;;;;;;1.15;0.85;;;22.90;99.90;;;;;;4897026;29;20111;-90
2022/06/02 14:03:40;;;;;;;3.90;1.08;;;;;;;;;;4909247;29;20761;-93
2022/06/02 14:06:10;;;;;;;3.13;0.90;;;23.00;99.90;;;;;;4912423;29;20547;-91
2022/06/02 14:08:56;;;;;;;4.05;1.15;;;;;;;;;;4913375;29;20381;-94
2022/06/02 14:11:22;;;;;;;1.98;0.77;;;;;;;;;;4911727;29;20453;-93
2022/06/02 14:14:07;;;;;;;4.43;0.90;;;;;;;;;;4914438;29;20051;-92
2022/06/02 14:16:35;;;;;;;1.52;0.80;;;;;;;;;;4913092;29;20052;-91
2022/06/02 14:19:20;;;;;;;3.30;1.15;;;;;;;;;;4911726;29;20052;-90
2022/06/02 14:21:58;;;;;;;2.33;0.90;;;;;;;;;;4901093;29;20871;-91
2022/06/02 14:24:35;;;;;;;1.98;0.93;;;;;;;;;;4894111;29;20048;-90
2022/06/02 14:27:01;;;;;;;2.38;0.60;;;;;;;;;;4909133;29;20164;-90
2022/06/02 14:29:46;;;;;;;2.22;1.13;;;;;;;;;;4891949;29;20083;-82
2022/06/02 14:32:19;;;;;;;2.35;1.00;;;;;;;;;;4875464;29;20139;-88
2022/06/02 14:35:04;;;;;;;4.75;1.73;;;;;;;;;;4895843;29;20056;-88
2022/06/02 14:37:34;;;;;;;4.47;1.73;;;;;;;;;;4911031;29;20117;-94
2022/06/02 14:40:06;;;;;;;3.40;1.13;;;;;;;;;;4911482;29;20041;-86
2022/06/02 14:45:21;;;;;;;4.18;1.00;;;;;;;;;;4910397;29;20052;-89
2022/06/02 14:48:05;;;;;;;1.80;0.60;;;;;;;;;;4912577;29;20051;-90
2022/06/02 14:50:37;;;;;;;5.72;1.75;;;;;;;;;;4895061;29;20041;-89
2022/06/02 14:53:13;;;;;;;3.50;1.70;;;;;;;;;;4900418;29;20380;-90
2022/06/02 14:55:46;;;;;;;4.07;1.23;;;;;;;;;;4910837;29;20043;-93
2022/06/02 14:58:32;;;;;;;3.17;1.30;;;;;;;;;;4893208;29;20055;-85
2022/06/02 15:01:35;;;;;;;3.75;1.58;;;23.80;99.90;;;;;;4909379;29;20190;-88
2022/06/02 15:04:19;;;;;;;9.02;1.10;;;;;;;;;;4891879;29;20069;-84
2022/06/02 15:06:49;;;;;;;2.40;1.20;;;;;;;;;;4896951;29;20044;-87
2022/06/02 15:09:38;;;;;;;4.18;1.08;;;;;;;;;;4922073;29;20076;-84
2022/06/02 15:12:23;;;;;;;3.55;1.10;;;;;;;;;;4925498;29;20067;-82
2022/06/02 15:15:07;;;;;;;2.25;0.90;;;;;;;;;;4902806;29;20051;-86
2022/06/02 15:17:52;;;;;;;2.85;1.02;;;;;;;;;;4912399;29;20047;-91
2022/06/02 15:24:01;;;;;;;2.53;1.27;;;;;;;;;;4920430;29;20051;-91
2022/06/02 15:26:51;;;;;;;3.17;0.90;;;;;;;;;;4896717;29;20128;-94
2022/06/02 15:29:45;;;;;;;3.13;0.98;;;25.20;99.90;;;;;;4921720;29;20059;-85
2022/06/02 15:32:27;;;;;;;3.92;1.10;;;;;;;;;;4907658;29;20108;-89
2022/06/02 15:34:53;;;;;;;4.15;1.10;;;;;;;;;;4917171;29;20047;-91
2022/06/02 15:37:38;;;;;;;3.80;0.90;;;;;;;;;;4881388;29;20032;-92
2022/06/02 15:40:23;;;;;;;5.10;1.20;;;;;;;;;;4900508;29;20071;-93
2022/06/02 15:42:55;;;;;;;3.63;0.88;;;;;;;;;;4905565;29;20044;-89
2022/06/02 15:46:11;;;;;;;6.63;1.20;;;25.60;99.90;;;;;;4896810;29;20048;-92
2022/06/02 15:48:49;;;;;;;3.33;1.02;;;;;;;;;;4878621;29;20063;-92
2022/06/02 15:51:34;;;;;;;6.15;1.20;;;;;;;;;;4898558;29;20052;-91
2022/06/02 15:54:26;;;;;;;4.07;1.10;;;;;;;;;;4917494;29;20056;-89